Ocean King — CZ2591 — position and weather

sailwx.info

Track history (hours):
 
Tides and Currents Weather Stations Pressure Air Temp Water Temp Dewpoint Dewpoint Depression Visibility Wind Speed Wind Dir Waves Ship Positions

Ocean King

Last reported at 2015-Mar-31 09:32 UTC. Time now 2015-Mar-31 09:46 UTC.
Position N 49°09' W 125°54'.

Length 29 m; draft 4 m.

Type: Fishing. MMSI: 316003514.

Date/timePositionNaut miles runAvg speedWind from/ knotsBaromVisibWave heightAir tempDewpointWater temp
2015-Mar-31 09:32N 49°09' W 125°54'2 1.9
2015-Mar-31 08:33N 49°11' W 125°56'7 7.1
2015-Mar-31 07:32N 49°17' W 125°50'0 0.1
2015-Mar-31 06:29N 49°17' W 125°50'0 0.0
2015-Mar-31 05:29N 49°17' W 125°50'0 0.0
2015-Mar-31 04:29N 49°17' W 125°50'0 0.0
2015-Mar-31 03:32N 49°17' W 125°50'0 0.0
2015-Mar-31 01:17N 49°17' W 125°50'7 6.6
2015-Mar-31 00:11N 49°11' W 125°56'2 2.0
2015-Mar-30 23:09N 49°09' W 125°54'0 0.5
2015-Mar-30 22:31N 49°09' W 125°54'0 0.0
2015-Mar-30 21:31N 49°09' W 125°54'0 0.0
2015-Mar-30 20:31N 49°09' W 125°54'0 0.0
2015-Mar-30 19:31N 49°09' W 125°54'0 0.0
2015-Mar-30 18:31N 49°09' W 125°54'0 0.0
2015-Mar-30 17:31N 49°09' W 125°54'0 0.0
2015-Mar-30 16:19N 49°09' W 125°54'0 0.0
2015-Mar-30 15:31N 49°09' W 125°54'0 0.0
2015-Mar-30 14:31N 49°09' W 125°54'0 0.0
2015-Mar-30 13:19N 49°09' W 125°54'0 0.0
2015-Mar-30 12:19N 49°09' W 125°54'0 0.0
2015-Mar-30 11:13N 49°09' W 125°54'0 0.0
2015-Mar-30 07:07N 49°09' W 125°54'0 0.2
2015-Mar-30 06:33N 49°09' W 125°54'6 5.7
2015-Mar-30 05:33N 49°15' W 125°53'3 2.6
2015-Mar-30 04:33N 49°17' W 125°50'0 0.0
2015-Mar-30 03:33N 49°17' W 125°50'0 0.0
2015-Mar-30 02:33N 49°17' W 125°50'0 0.0
2015-Mar-30 01:27N 49°17' W 125°50'0 0.0
2015-Mar-30 00:33N 49°17' W 125°50'0 0.0
2015-Mar-29 23:33N 49°17' W 125°50'3 3.0
2015-Mar-29 22:33N 49°15' W 125°53'6 5.4
2015-Mar-29 21:31N 49°09' W 125°54'0 0.0
2015-Mar-29 20:31N 49°09' W 125°54'0 0.4
2015-Mar-29 19:33N 49°09' W 125°54'0 0.1
2015-Mar-29 18:33N 49°09' W 125°54'0 0.0
2015-Mar-29 17:15N 49°09' W 125°54'0 0.0
2015-Mar-29 16:33N 49°09' W 125°54'0 0.0
2015-Mar-29 15:33N 49°09' W 125°54'0 0.0
2015-Mar-29 14:33N 49°09' W 125°54'0 0.0
2015-Mar-29 13:27N 49°09' W 125°54'0 0.0
2015-Mar-29 12:33N 49°09' W 125°54'0 0.0
2015-Mar-29 11:15N 49°09' W 125°54'0 0.0
2015-Mar-29 10:27N 49°09' W 125°54'0 0.0
2015-Mar-29 09:27N 49°09' W 125°54'0 0.0
2015-Mar-29 08:27N 49°09' W 125°54'0 0.0
2015-Mar-29 07:33N 49°09' W 125°54'0 0.0
2015-Mar-29 06:33N 49°09' W 125°54'0 0.0
2015-Mar-29 05:30N 49°09' W 125°54'0 0.0
2015-Mar-29 04:27N 49°09' W 125°54'0 0.0
2015-Mar-29 03:33N 49°09' W 125°54'0 0.0
2015-Mar-29 02:27N 49°09' W 125°54'0 0.0
2015-Mar-29 01:27N 49°09' W 125°54'0 0.0
2015-Mar-29 00:04N 49°09' W 125°54'0 0.0
2015-Mar-28 23:09N 49°09' W 125°54'0 0.0
2015-Mar-28 22:21N 49°09' W 125°54'0 0.0
2015-Mar-28 21:33N 49°09' W 125°54'0 0.0
2015-Mar-28 20:33N 49°09' W 125°54'0 0.0
2015-Mar-28 19:33N 49°09' W 125°54'0 0.0
2015-Mar-28 18:33N 49°09' W 125°54'0 0.0
2015-Mar-28 17:30N 49°09' W 125°54'0 0.0
2015-Mar-28 16:33N 49°09' W 125°54'0 0.0
2015-Mar-28 15:24N 49°09' W 125°54'0 0.0
2015-Mar-28 14:30N 49°09' W 125°54'0 0.0
2015-Mar-28 13:33N 49°09' W 125°54'0 0.0
2015-Mar-28 12:33N 49°09' W 125°54'0 0.0
2015-Mar-28 11:27N 49°09' W 125°54'0 0.0
2015-Mar-28 10:27N 49°09' W 125°54'0 0.0
2015-Mar-28 09:30N 49°09' W 125°54'0 0.0
2015-Mar-28 08:33N 49°09' W 125°54'0 0.0
2015-Mar-28 07:30N 49°09' W 125°54'0 0.0
2015-Mar-28 06:33N 49°09' W 125°54'0 0.0
2015-Mar-28 05:30N 49°09' W 125°54'0 0.0
2015-Mar-28 02:24N 49°09' W 125°54'0 0.0
2015-Mar-28 01:15N 49°09' W 125°54'0 0.0
2015-Mar-28 00:27N 49°09' W 125°54'0 0.0
2015-Mar-27 23:33N 49°09' W 125°54'0 0.0
2015-Mar-27 22:21N 49°09' W 125°54'0 0.0
2015-Mar-27 21:33N 49°09' W 125°54'0 0.0
2015-Mar-27 20:33N 49°09' W 125°54'0 0.0
2015-Mar-27 19:27N 49°09' W 125°54'0 0.0
2015-Mar-27 18:30N 49°09' W 125°54'0 0.0
2015-Mar-27 17:33N 49°09' W 125°54'0 0.0
2015-Mar-27 16:33N 49°09' W 125°54'0 0.0
2015-Mar-27 15:33N 49°09' W 125°54'0 0.0
2015-Mar-27 14:30N 49°09' W 125°54'0 0.0
2015-Mar-27 13:27N 49°09' W 125°54'0 0.0
2015-Mar-27 12:27N 49°09' W 125°54'0 0.0
2015-Mar-27 11:27N 49°09' W 125°54'0 0.0
2015-Mar-27 10:21N 49°09' W 125°54'0 0.0
2015-Mar-27 09:33N 49°09' W 125°54'0 0.0
2015-Mar-27 08:33N 49°09' W 125°54'0 0.0
2015-Mar-27 07:33N 49°09' W 125°54'0 0.0
2015-Mar-27 05:27N 49°09' W 125°54'0 0.0
2015-Mar-27 04:33N 49°09' W 125°54'0 0.0
2015-Mar-27 03:27N 49°09' W 125°54'0 0.0
2015-Mar-27 02:33N 49°09' W 125°54'0 0.0
2015-Mar-27 01:33N 49°09' W 125°54'0 0.0
2015-Mar-27 00:27N 49°09' W 125°54'0 0.0
2015-Mar-26 23:33N 49°09' W 125°54'0 0.3
2015-Mar-26 22:32N 49°09' W 125°55'0 0.0
2015-Mar-26 21:32N 49°09' W 125°55'0 0.0
2015-Mar-26 20:32N 49°09' W 125°55'0 0.0
2015-Mar-26 19:29N 49°09' W 125°55'0 0.0
2015-Mar-26 18:32N 49°09' W 125°55'0 0.0
2015-Mar-26 17:32N 49°09' W 125°55'0 0.0
2015-Mar-26 16:23N 49°09' W 125°55'0 0.0
2015-Mar-26 15:26N 49°09' W 125°55'0 0.0
2015-Mar-26 14:32N 49°09' W 125°55'0 0.0
2015-Mar-26 10:32N 49°09' W 125°55'0 0.0
2015-Mar-26 09:32N 49°09' W 125°55'0 0.0
2015-Mar-26 08:32N 49°09' W 125°55'0 0.0
2015-Mar-26 07:29N 49°09' W 125°55'0 0.0
2015-Mar-26 03:32N 49°09' W 125°55'0 0.0
2015-Mar-26 01:14N 49°09' W 125°55'0 0.0
2015-Mar-26 00:32N 49°09' W 125°55'0 0.0
2015-Mar-25 23:32N 49°09' W 125°55'0 0.0
2015-Mar-25 22:23N 49°09' W 125°55'0 0.0
2015-Mar-25 21:23N 49°09' W 125°55'0 0.0
2015-Mar-25 20:26N 49°09' W 125°55'0 0.0
2015-Mar-25 19:29N 49°09' W 125°55'0 0.0
2015-Mar-25 18:32N 49°09' W 125°55'0 0.0
2015-Mar-25 14:32N 49°09' W 125°55'0 0.0
2015-Mar-25 09:32N 49°09' W 125°55'0 0.0
2015-Mar-25 08:32N 49°09' W 125°55'0 0.0
2015-Mar-25 07:32N 49°09' W 125°55'0 0.0
2015-Mar-25 03:32N 49°09' W 125°55'0 0.0
2015-Mar-25 00:17N 49°09' W 125°55'6 8.6
2015-Mar-24 23:33N 49°03' W 125°52'1010.1
2015-Mar-24 22:33N 48°57' W 125°41'1010.1
2015-Mar-24 21:33N 48°50' W 125°29'1010.1
2015-Mar-24 20:33N 48°45' W 125°15'10 9.9
2015-Mar-24 19:33N 48°41' W 125°02'10 9.8
2015-Mar-24 18:33N 48°36' W 124°49'1110.6
2015-Mar-24 17:33N 48°32' W 124°35'1110.6
2015-Mar-24 16:33N 48°28' W 124°19'10 9.9
2015-Mar-24 15:33N 48°24' W 124°06'10 9.8
2015-Mar-24 14:32N 48°21' W 123°52'9 9.2
2015-Mar-24 13:32N 48°18' W 123°38'8 8.4
2015-Mar-24 12:33N 48°21' W 123°26'8 8.1
2015-Mar-24 11:33N 48°26' W 123°17'9 8.9
2015-Mar-24 10:33N 48°35' W 123°18'10 9.9
2015-Mar-24 09:33N 48°44' W 123°21'1010.2
2015-Mar-24 08:33N 48°54' W 123°28'10 9.6
2015-Mar-24 07:33N 49°02' W 123°35'9 8.9
2015-Mar-24 06:33N 49°10' W 123°39'9 9.2
2015-Mar-24 05:33N 49°15' W 123°51'9 9.1
2015-Mar-24 04:33N 49°18' W 124°04'8 8.4
2015-Mar-24 03:33N 49°22' W 124°16'8 8.4
2015-Mar-24 02:33N 49°27' W 124°26'9 8.9
2015-Mar-24 01:33N 49°34' W 124°36'9 9.3
2015-Mar-24 00:32N 49°40' W 124°46'9 9.3
2015-Mar-23 23:33N 49°47' W 124°56'  
Track history (hours):
 
Tides and Currents Weather Stations Pressure Air Temp Water Temp Dewpoint Dewpoint Depression Visibility Wind Speed Wind Dir Waves Ship Positions

Ocean King

Last reported at 2015-Mar-31 09:32 UTC. Time now 2015-Mar-31 09:46 UTC.
Position N 49°09' W 125°54'.

Length 29 m; draft 4 m.

Type: Fishing. MMSI: 316003514.

Date/timePositionNaut miles runAvg speedWind from/ knotsBaromVisibWave heightAir tempDewpointWater temp
2015-Mar-31 09:32N 49°09' W 125°54'2 1.9
2015-Mar-31 08:33N 49°11' W 125°56'7 7.1
2015-Mar-31 07:32N 49°17' W 125°50'0 0.1
2015-Mar-31 06:29N 49°17' W 125°50'0 0.0
2015-Mar-31 05:29N 49°17' W 125°50'0 0.0
2015-Mar-31 04:29N 49°17' W 125°50'0 0.0
2015-Mar-31 03:32N 49°17' W 125°50'0 0.0
2015-Mar-31 01:17N 49°17' W 125°50'7 6.6
2015-Mar-31 00:11N 49°11' W 125°56'2 2.0
2015-Mar-30 23:09N 49°09' W 125°54'0 0.5
2015-Mar-30 22:31N 49°09' W 125°54'0 0.0
2015-Mar-30 21:31N 49°09' W 125°54'0 0.0
2015-Mar-30 20:31N 49°09' W 125°54'0 0.0
2015-Mar-30 19:31N 49°09' W 125°54'0 0.0
2015-Mar-30 18:31N 49°09' W 125°54'0 0.0
2015-Mar-30 17:31N 49°09' W 125°54'0 0.0
2015-Mar-30 16:19N 49°09' W 125°54'0 0.0
2015-Mar-30 15:31N 49°09' W 125°54'0 0.0
2015-Mar-30 14:31N 49°09' W 125°54'0 0.0
2015-Mar-30 13:19N 49°09' W 125°54'0 0.0
2015-Mar-30 12:19N 49°09' W 125°54'0 0.0
2015-Mar-30 11:13N 49°09' W 125°54'0 0.0
2015-Mar-30 07:07N 49°09' W 125°54'0 0.2
2015-Mar-30 06:33N 49°09' W 125°54'6 5.7
2015-Mar-30 05:33N 49°15' W 125°53'3 2.6
2015-Mar-30 04:33N 49°17' W 125°50'0 0.0
2015-Mar-30 03:33N 49°17' W 125°50'0 0.0
2015-Mar-30 02:33N 49°17' W 125°50'0 0.0
2015-Mar-30 01:27N 49°17' W 125°50'0 0.0
2015-Mar-30 00:33N 49°17' W 125°50'0 0.0
2015-Mar-29 23:33N 49°17' W 125°50'3 3.0
2015-Mar-29 22:33N 49°15' W 125°53'6 5.4
2015-Mar-29 21:31N 49°09' W 125°54'0 0.0
2015-Mar-29 20:31N 49°09' W 125°54'0 0.4
2015-Mar-29 19:33N 49°09' W 125°54'0 0.1
2015-Mar-29 18:33N 49°09' W 125°54'0 0.0
2015-Mar-29 17:15N 49°09' W 125°54'0 0.0
2015-Mar-29 16:33N 49°09' W 125°54'0 0.0
2015-Mar-29 15:33N 49°09' W 125°54'0 0.0
2015-Mar-29 14:33N 49°09' W 125°54'0 0.0
2015-Mar-29 13:27N 49°09' W 125°54'0 0.0
2015-Mar-29 12:33N 49°09' W 125°54'0 0.0
2015-Mar-29 11:15N 49°09' W 125°54'0 0.0
2015-Mar-29 10:27N 49°09' W 125°54'0 0.0
2015-Mar-29 09:27N 49°09' W 125°54'0 0.0
2015-Mar-29 08:27N 49°09' W 125°54'0 0.0
2015-Mar-29 07:33N 49°09' W 125°54'0 0.0
2015-Mar-29 06:33N 49°09' W 125°54'0 0.0
2015-Mar-29 05:30N 49°09' W 125°54'0 0.0
2015-Mar-29 04:27N 49°09' W 125°54'0 0.0
2015-Mar-29 03:33N 49°09' W 125°54'0 0.0
2015-Mar-29 02:27N 49°09' W 125°54'0 0.0
2015-Mar-29 01:27N 49°09' W 125°54'0 0.0
2015-Mar-29 00:04N 49°09' W 125°54'0 0.0
2015-Mar-28 23:09N 49°09' W 125°54'0 0.0
2015-Mar-28 22:21N 49°09' W 125°54'0 0.0
2015-Mar-28 21:33N 49°09' W 125°54'0 0.0
2015-Mar-28 20:33N 49°09' W 125°54'0 0.0
2015-Mar-28 19:33N 49°09' W 125°54'0 0.0
2015-Mar-28 18:33N 49°09' W 125°54'0 0.0
2015-Mar-28 17:30N 49°09' W 125°54'0 0.0
2015-Mar-28 16:33N 49°09' W 125°54'0 0.0
2015-Mar-28 15:24N 49°09' W 125°54'0 0.0
2015-Mar-28 14:30N 49°09' W 125°54'0 0.0
2015-Mar-28 13:33N 49°09' W 125°54'0 0.0
2015-Mar-28 12:33N 49°09' W 125°54'0 0.0
2015-Mar-28 11:27N 49°09' W 125°54'0 0.0
2015-Mar-28 10:27N 49°09' W 125°54'0 0.0
2015-Mar-28 09:30N 49°09' W 125°54'0 0.0
2015-Mar-28 08:33N 49°09' W 125°54'0 0.0
2015-Mar-28 07:30N 49°09' W 125°54'0 0.0
2015-Mar-28 06:33N 49°09' W 125°54'0 0.0
2015-Mar-28 05:30N 49°09' W 125°54'0 0.0
2015-Mar-28 02:24N 49°09' W 125°54'0 0.0
2015-Mar-28 01:15N 49°09' W 125°54'0 0.0
2015-Mar-28 00:27N 49°09' W 125°54'0 0.0
2015-Mar-27 23:33N 49°09' W 125°54'0 0.0
2015-Mar-27 22:21N 49°09' W 125°54'0 0.0
2015-Mar-27 21:33N 49°09' W 125°54'0 0.0
2015-Mar-27 20:33N 49°09' W 125°54'0 0.0
2015-Mar-27 19:27N 49°09' W 125°54'0 0.0
2015-Mar-27 18:30N 49°09' W 125°54'0 0.0
2015-Mar-27 17:33N 49°09' W 125°54'0 0.0
2015-Mar-27 16:33N 49°09' W 125°54'0 0.0
2015-Mar-27 15:33N 49°09' W 125°54'0 0.0
2015-Mar-27 14:30N 49°09' W 125°54'0 0.0
2015-Mar-27 13:27N 49°09' W 125°54'0 0.0
2015-Mar-27 12:27N 49°09' W 125°54'0 0.0
2015-Mar-27 11:27N 49°09' W 125°54'0 0.0
2015-Mar-27 10:21N 49°09' W 125°54'0 0.0
2015-Mar-27 09:33N 49°09' W 125°54'0 0.0
2015-Mar-27 08:33N 49°09' W 125°54'0 0.0
2015-Mar-27 07:33N 49°09' W 125°54'0 0.0
2015-Mar-27 05:27N 49°09' W 125°54'0 0.0
2015-Mar-27 04:33N 49°09' W 125°54'0 0.0
2015-Mar-27 03:27N 49°09' W 125°54'0 0.0
2015-Mar-27 02:33N 49°09' W 125°54'0 0.0
2015-Mar-27 01:33N 49°09' W 125°54'0 0.0
2015-Mar-27 00:27N 49°09' W 125°54'0 0.0
2015-Mar-26 23:33N 49°09' W 125°54'0 0.3
2015-Mar-26 22:32N 49°09' W 125°55'0 0.0
2015-Mar-26 21:32N 49°09' W 125°55'0 0.0
2015-Mar-26 20:32N 49°09' W 125°55'0 0.0
2015-Mar-26 19:29N 49°09' W 125°55'0 0.0
2015-Mar-26 18:32N 49°09' W 125°55'0 0.0
2015-Mar-26 17:32N 49°09' W 125°55'0 0.0
2015-Mar-26 16:23N 49°09' W 125°55'0 0.0
2015-Mar-26 15:26N 49°09' W 125°55'0 0.0
2015-Mar-26 14:32N 49°09' W 125°55'0 0.0
2015-Mar-26 10:32N 49°09' W 125°55'0 0.0
2015-Mar-26 09:32N 49°09' W 125°55'0 0.0
2015-Mar-26 08:32N 49°09' W 125°55'0 0.0
2015-Mar-26 07:29N 49°09' W 125°55'0 0.0
2015-Mar-26 03:32N 49°09' W 125°55'0 0.0
2015-Mar-26 01:14N 49°09' W 125°55'0 0.0
2015-Mar-26 00:32N 49°09' W 125°55'0 0.0
2015-Mar-25 23:32N 49°09' W 125°55'0 0.0
2015-Mar-25 22:23N 49°09' W 125°55'0 0.0
2015-Mar-25 21:23N 49°09' W 125°55'0 0.0
2015-Mar-25 20:26N 49°09' W 125°55'0 0.0
2015-Mar-25 19:29N 49°09' W 125°55'0 0.0
2015-Mar-25 18:32N 49°09' W 125°55'0 0.0
2015-Mar-25 14:32N 49°09' W 125°55'0 0.0
2015-Mar-25 09:32N 49°09' W 125°55'0 0.0
2015-Mar-25 08:32N 49°09' W 125°55'0 0.0
2015-Mar-25 07:32N 49°09' W 125°55'0 0.0
2015-Mar-25 03:32N 49°09' W 125°55'0 0.0
2015-Mar-25 00:17N 49°09' W 125°55'6 8.6
2015-Mar-24 23:33N 49°03' W 125°52'1010.1
2015-Mar-24 22:33N 48°57' W 125°41'1010.1
2015-Mar-24 21:33N 48°50' W 125°29'1010.1
2015-Mar-24 20:33N 48°45' W 125°15'10 9.9
2015-Mar-24 19:33N 48°41' W 125°02'10 9.8
2015-Mar-24 18:33N 48°36' W 124°49'1110.6
2015-Mar-24 17:33N 48°32' W 124°35'1110.6
2015-Mar-24 16:33N 48°28' W 124°19'10 9.9
2015-Mar-24 15:33N 48°24' W 124°06'10 9.8
2015-Mar-24 14:32N 48°21' W 123°52'9 9.2
2015-Mar-24 13:32N 48°18' W 123°38'8 8.4
2015-Mar-24 12:33N 48°21' W 123°26'8 8.1
2015-Mar-24 11:33N 48°26' W 123°17'9 8.9
2015-Mar-24 10:33N 48°35' W 123°18'10 9.9
2015-Mar-24 09:33N 48°44' W 123°21'1010.2
2015-Mar-24 08:33N 48°54' W 123°28'10 9.6
2015-Mar-24 07:33N 49°02' W 123°35'9 8.9
2015-Mar-24 06:33N 49°10' W 123°39'9 9.2
2015-Mar-24 05:33N 49°15' W 123°51'9 9.1
2015-Mar-24 04:33N 49°18' W 124°04'8 8.4
2015-Mar-24 03:33N 49°22' W 124°16'8 8.4
2015-Mar-24 02:33N 49°27' W 124°26'9 8.9
2015-Mar-24 01:33N 49°34' W 124°36'9 9.3
2015-Mar-24 00:32N 49°40' W 124°46'9 9.3
2015-Mar-23 23:33N 49°47' W 124°56'  

Dump ship's entire track history